Skip Navigation LinksHome page > Tools > METAR decoder Skip Navigation Links

METAR decoder

Settings

METAR

Chicago O'Hare Intl, Chicago

For information only: do not use for flight planning or navigation.
Latest weather
Observation time Wednesday, October 1, 2014 8:51 AM CDT
Local time Wednesday, October 1, 2014 9:13 AM CDT
Flight conditions Visual Meteorological Conditions
Winds
Wind direction Southeast (140°)
Wind speed 13 mph
Visibility 10 mi.
Sky condition
Ceiling unlimited
Cloud layer few clouds 3,000 ft.
Cloud layer few clouds 30,000 ft.
Temperature 56°F
Dewpoint 47°F
Altimeter 30.02 in.Hg
Derived measurements
Relative humidity 72%
Density altitude 510 ft.
Sea-level pressure 30.02 in.Hg
Remarks
System requires maintenance.
Automated weather observing station with precipitation discriminator.
METAR KORD 011351Z 14011KT 10SM FEW030 FEW300 13/08 A3002 RMK AO2 SLP167 T01330083 $

InnerDrive.Weather 4.0.5372.0 Release CLR 4.0.30319.34014
Copyright ©2014 Inner Drive Technology. All rights reserved. Portions Copyright ©1986-2014 David Braverman.

Find weather

Site navigation


Skip Navigation Links

Place info

Page info

PayPal - The safer, easier way to pay online!

Return home.

Copyright ©2014 Inner Drive Technology. Purveyors of fine, hand-crafted computer software. Page printed 2014-10-01T14:13:51 UTC.